createdAt,value
2023-03-13T00:00:54.389Z,100
2023-03-13T00:15:53.257Z,100
2023-03-13T00:30:50.773Z,100
2023-03-13T00:45:49.851Z,100
2023-03-13T01:15:50.705Z,100
2023-03-13T01:30:52.575Z,100
2023-03-13T01:45:52.984Z,100
2023-03-13T02:00:46.319Z,100
2023-03-13T02:01:27.660Z,100
2023-03-13T02:15:52.859Z,100
2023-03-13T02:30:59.944Z,100
2023-03-13T02:45:52.360Z,100
2023-03-13T03:00:55.774Z,100
2023-03-13T03:15:54.255Z,100
2023-03-13T03:30:55.440Z,100
2023-03-13T03:45:56.283Z,100
2023-03-13T04:00:57.877Z,100
2023-03-13T04:15:55.034Z,100
2023-03-13T04:30:57.851Z,100
2023-03-13T04:45:56.612Z,100
2023-03-13T05:00:57.925Z,100
2023-03-13T05:15:58.184Z,100
2023-03-13T05:31:09.306Z,100
2023-03-13T05:41:51.018Z,100
2023-03-13T05:57:00.441Z,100
2023-03-13T06:11:53.084Z,100
2023-03-13T06:26:55.736Z,100
2023-03-13T06:41:55.266Z,100
2023-03-13T06:56:54.297Z,100
2023-03-13T07:11:57.224Z,100
2023-03-13T07:27:08.770Z,100
2023-03-13T07:41:57.572Z,100
2023-03-13T07:56:56.862Z,100
2023-03-13T08:11:59.890Z,100
2023-03-13T08:27:06.800Z,100
2023-03-13T08:42:07.068Z,93.5
2023-03-13T08:57:00.922Z,100
2023-03-13T09:12:06.447Z,100
2023-03-13T09:27:02.158Z,84.3
2023-03-13T09:42:02.413Z,72
2023-03-13T09:57:01.766Z,66.5
2023-03-13T10:12:02.608Z,71.8
2023-03-13T10:27:09.078Z,71.8
2023-03-13T10:42:04.186Z,100
2023-03-13T10:57:04.366Z,100
2023-03-13T11:12:04.881Z,100
2023-03-13T11:27:06.513Z,100
2023-03-13T11:42:27.940Z,100
2023-03-13T11:57:15.173Z,100
2023-03-13T12:12:09.645Z,100
2023-03-13T12:27:10.878Z,100
2023-03-13T12:42:10.130Z,100
2023-03-13T12:57:10.286Z,100
2023-03-13T13:12:15.315Z,90.3
2023-03-13T13:27:11.777Z,75.4
2023-03-13T13:42:11.706Z,80.6
2023-03-13T13:57:13.235Z,69.1
2023-03-13T14:12:12.531Z,65.8
2023-03-13T14:27:13.186Z,54.2
2023-03-13T14:42:14.334Z,60
2023-03-13T14:57:14.784Z,62.3
2023-03-13T15:12:17.224Z,62.1
2023-03-13T15:27:18.676Z,62.1
2023-03-13T15:42:21.754Z,57.4
2023-03-13T15:57:17.337Z,53.9
2023-03-13T16:12:18.984Z,61.7
2023-03-13T16:27:18.979Z,61.7
2023-03-13T16:42:52.036Z,64.6
2023-03-13T16:57:58.399Z,72.2
2023-03-13T17:12:25.632Z,79.5
2023-03-13T17:27:49.302Z,96.4
2023-03-13T17:42:22.042Z,100
2023-03-13T17:57:22.449Z,100
2023-03-13T18:12:34.924Z,100
2023-03-13T18:27:23.941Z,100
2023-03-13T18:42:24.837Z,100
2023-03-13T18:57:26.579Z,100
2023-03-13T19:12:27.949Z,100
2023-03-13T19:42:28.367Z,100
2023-03-13T19:57:29.629Z,100
2023-03-13T20:12:31.966Z,100
2023-03-13T20:27:37.835Z,100
2023-03-13T20:57:32.240Z,100
2023-03-13T21:12:30.967Z,100
2023-03-13T21:27:31.757Z,100
2023-03-13T21:42:32.621Z,100
2023-03-13T21:57:32.787Z,100
2023-03-13T22:12:33.626Z,100
2023-03-13T22:27:36.397Z,100
2023-03-13T22:42:37.728Z,100
2023-03-13T22:57:37.184Z,100
2023-03-13T23:00:43.917Z,100
2023-03-13T23:15:56.783Z,100
2023-03-13T23:45:42.904Z,100
